createdAt,value
2023-02-13T00:01:26.975Z,11.79
2023-02-13T00:03:55.621Z,11.93
2023-02-13T00:06:24.414Z,12.03
2023-02-13T00:08:53.260Z,11.56
2023-02-13T00:11:21.909Z,10.70
2023-02-13T00:13:50.522Z,10.01
2023-02-13T00:16:18.978Z,9.94
2023-02-13T00:18:47.499Z,10.41
2023-02-13T00:21:15.971Z,10.84
2023-02-13T00:23:44.546Z,11.18
2023-02-13T00:26:15.559Z,11.46
2023-02-13T00:28:46.272Z,11.67
2023-02-13T00:31:17.935Z,11.81
2023-02-13T00:33:47.379Z,11.88
2023-02-13T00:36:18.797Z,11.29
2023-02-13T00:38:48.258Z,10.47
2023-02-13T00:41:17.773Z,9.96
2023-02-13T00:43:47.827Z,10.23
2023-02-13T00:46:17.882Z,10.67
2023-02-13T00:48:46.793Z,11.01
2023-02-13T00:51:15.776Z,11.28
2023-02-13T00:53:44.377Z,11.51
2023-02-13T00:56:12.815Z,11.69
2023-02-13T00:58:41.365Z,11.85
2023-02-13T01:01:09.865Z,11.97
2023-02-13T01:03:38.573Z,12.08
2023-02-13T01:06:07.945Z,12.20
2023-02-13T01:08:40.161Z,12.25
2023-02-13T01:11:08.611Z,11.60
2023-02-13T01:13:37.781Z,10.75
2023-02-13T01:16:07.012Z,10.18
2023-02-13T01:18:35.669Z,10.43
2023-02-13T01:21:09.601Z,10.88
2023-02-13T01:23:39.408Z,11.22
2023-02-13T01:26:11.501Z,11.47
2023-02-13T01:28:40.113Z,11.64
2023-02-13T01:31:08.723Z,11.80
2023-02-13T01:33:37.239Z,11.94
2023-02-13T01:36:08.065Z,12.09
2023-02-13T01:38:36.673Z,12.19
2023-02-13T01:41:05.473Z,12.32
2023-02-13T01:43:54.938Z,12.44
2023-02-13T01:46:34.604Z,11.79
2023-02-13T01:49:12.968Z,10.87
2023-02-13T01:51:42.531Z,10.23
2023-02-13T01:54:15.653Z,10.39
2023-02-13T01:56:47.079Z,10.81
2023-02-13T01:59:21.779Z,11.12
2023-02-13T02:01:51.387Z,11.39
2023-02-13T02:04:27.311Z,11.57
2023-02-13T02:07:00.234Z,11.71
2023-02-13T02:09:35.711Z,11.84
2023-02-13T02:12:15.191Z,11.97
2023-02-13T02:14:45.154Z,12.08
2023-02-13T02:17:14.699Z,12.21
2023-02-13T02:20:15.316Z,12.31
2023-02-13T02:23:25.497Z,12.38
2023-02-13T02:26:03.982Z,11.92
2023-02-13T02:29:03.920Z,10.99
2023-02-13T02:32:03.503Z,10.14
2023-02-13T02:35:03.562Z,10.16
2023-02-13T02:37:53.683Z,10.68
2023-02-13T02:40:55.733Z,11.03
2023-02-13T02:43:47.445Z,11.29
2023-02-13T02:46:33.124Z,11.47
2023-02-13T02:49:34.146Z,11.58
2023-02-13T02:52:08.550Z,11.71
2023-02-13T02:55:15.543Z,11.83
2023-02-13T02:58:14.655Z,11.90
2023-02-13T03:01:02.754Z,11.99
2023-02-13T03:03:49.812Z,12.05
2023-02-13T03:06:40.583Z,12.17
2023-02-13T03:09:39.202Z,12.26
2023-02-13T03:12:28.784Z,12.32
2023-02-13T03:14:57.440Z,12.28
2023-02-13T03:17:44.703Z,11.56
2023-02-13T03:21:20.030Z,10.63
2023-02-13T03:24:07.820Z,10.57
2023-02-13T03:26:50.760Z,11.05
2023-02-13T03:29:56.294Z,11.38
2023-02-13T03:32:40.159Z,11.61
2023-02-13T03:35:46.570Z,11.75
2023-02-13T03:38:40.570Z,11.83
2023-02-13T03:41:39.201Z,11.97
2023-02-13T03:44:12.391Z,12.05
2023-02-13T03:46:46.254Z,12.15
2023-02-13T03:49:43.489Z,12.26
2023-02-13T03:52:25.159Z,12.37
2023-02-13T03:55:17.810Z,12.46
2023-02-13T03:58:06.921Z,12.54
2023-02-13T04:00:47.359Z,12.62
2023-02-13T04:03:32.166Z,12.69
2023-02-13T04:06:12.314Z,12.14
2023-02-13T04:08:40.982Z,11.17
2023-02-13T04:11:38.243Z,10.47
2023-02-13T04:14:18.750Z,10.52
2023-02-13T04:16:52.677Z,10.95
2023-02-13T04:19:21.625Z,11.29
2023-02-13T04:21:56.930Z,11.51
2023-02-13T04:24:26.683Z,11.68
2023-02-13T04:26:56.515Z,11.82
2023-02-13T04:29:26.356Z,11.99
2023-02-13T04:31:55.068Z,12.12
2023-02-13T04:34:23.748Z,12.23
2023-02-13T04:36:52.158Z,12.30
2023-02-13T04:39:20.753Z,12.37
2023-02-13T04:41:49.203Z,12.48
2023-02-13T04:44:17.690Z,12.58
2023-02-13T04:46:46.144Z,12.67
2023-02-13T04:49:14.783Z,12.75
2023-02-13T04:51:43.200Z,12.82
2023-02-13T04:54:11.701Z,12.91
2023-02-13T04:56:40.110Z,13.00
2023-02-13T04:59:08.675Z,13.07
2023-02-13T05:01:37.179Z,13.12
2023-02-13T05:04:06.027Z,13.19
2023-02-13T05:06:34.578Z,13.04
2023-02-13T05:09:03.096Z,12.21
2023-02-13T05:11:31.533Z,11.42
2023-02-13T05:14:00.096Z,11.15
2023-02-13T05:16:28.586Z,11.53
2023-02-13T05:18:57.226Z,11.90
2023-02-13T05:21:44.379Z,12.15
2023-02-13T05:24:13.112Z,12.32
2023-02-13T05:26:41.556Z,12.39
2023-02-13T05:29:20.503Z,12.51
2023-02-13T05:31:51.440Z,12.59
2023-02-13T05:34:24.593Z,12.65
2023-02-13T05:36:54.049Z,12.72
2023-02-13T05:39:22.890Z,12.79
2023-02-13T05:41:51.378Z,12.81
2023-02-13T05:44:19.946Z,12.87
2023-02-13T05:46:49.582Z,12.92
2023-02-13T05:49:18.278Z,12.94
2023-02-13T05:51:47.666Z,12.99
2023-02-13T05:54:16.153Z,13.04
2023-02-13T05:56:44.828Z,13.09
2023-02-13T05:59:13.696Z,13.13
2023-02-13T06:01:42.148Z,13.14
2023-02-13T06:04:10.681Z,12.66
2023-02-13T06:06:39.116Z,11.76
2023-02-13T06:09:07.637Z,11.02
2023-02-13T06:11:36.071Z,10.95
2023-02-13T06:14:04.671Z,11.34
2023-02-13T06:16:33.451Z,11.65
2023-02-13T06:19:02.055Z,11.92
2023-02-13T06:21:30.808Z,12.13
2023-02-13T06:23:59.384Z,12.27
2023-02-13T06:26:27.864Z,12.40
2023-02-13T06:28:56.489Z,12.48
2023-02-13T06:31:25.107Z,12.56
2023-02-13T06:33:53.866Z,12.63
2023-02-13T06:36:22.467Z,12.68
2023-02-13T06:38:50.946Z,12.75
2023-02-13T06:41:19.438Z,12.81
2023-02-13T06:43:47.983Z,12.85
2023-02-13T06:46:16.526Z,12.89
2023-02-13T06:48:44.953Z,12.92
2023-02-13T06:51:13.348Z,12.97
2023-02-13T06:53:41.777Z,12.74
2023-02-13T06:56:11.520Z,11.88
2023-02-13T06:58:40.423Z,11.07
2023-02-13T07:01:08.988Z,10.79
2023-02-13T07:03:37.535Z,11.14
2023-02-13T07:06:06.278Z,11.50
2023-02-13T07:08:34.745Z,11.78
2023-02-13T07:11:03.270Z,11.99
2023-02-13T07:13:31.896Z,12.15
2023-02-13T07:16:03.808Z,12.25
2023-02-13T07:18:32.499Z,12.33
2023-02-13T07:21:00.938Z,12.40
2023-02-13T07:23:29.497Z,12.46
2023-02-13T07:26:01.970Z,12.51
2023-02-13T07:28:31.053Z,12.01
2023-02-13T07:31:06.162Z,11.16
2023-02-13T07:33:35.638Z,10.48
2023-02-13T07:36:05.070Z,10.59
2023-02-13T07:38:33.918Z,10.96
2023-02-13T07:41:04.668Z,11.27
2023-02-13T07:43:33.513Z,11.51
2023-02-13T07:46:03.670Z,11.69
2023-02-13T07:48:32.152Z,11.82
2023-02-13T07:51:03.662Z,11.93
2023-02-13T07:53:32.706Z,12.04
2023-02-13T07:56:08.849Z,11.76
2023-02-13T07:58:40.457Z,10.91
2023-02-13T08:01:10.879Z,10.23
2023-02-13T08:03:40.076Z,9.99
2023-02-13T08:06:09.828Z,10.37
2023-02-13T08:08:39.054Z,10.76
2023-02-13T08:11:38.713Z,11.04
2023-02-13T08:14:07.351Z,11.30
2023-02-13T08:16:35.998Z,11.51
2023-02-13T08:19:04.604Z,11.43
2023-02-13T08:21:33.170Z,10.71
2023-02-13T08:24:01.608Z,10.03
2023-02-13T08:26:31.863Z,10.01
2023-02-13T08:29:00.691Z,10.44
2023-02-13T08:31:29.294Z,10.82
2023-02-13T08:33:58.382Z,11.10
2023-02-13T08:36:26.949Z,11.35
2023-02-13T08:38:55.552Z,11.47
2023-02-13T08:41:24.125Z,10.87
2023-02-13T08:43:54.583Z,10.15
2023-02-13T08:46:23.129Z,9.60
2023-02-13T08:48:52.261Z,9.37
2023-02-13T08:51:20.721Z,9.82
2023-02-13T08:53:49.398Z,10.29
2023-02-13T08:56:18.047Z,10.66
2023-02-13T08:58:50.548Z,10.98
2023-02-13T09:01:20.096Z,11.23
2023-02-13T09:03:48.582Z,11.26
2023-02-13T09:06:17.067Z,10.63
2023-02-13T09:08:45.592Z,10.00
2023-02-13T09:11:14.026Z,10.00
2023-02-13T09:13:42.717Z,10.45
2023-02-13T09:16:11.916Z,10.87
2023-02-13T09:18:40.486Z,11.19
2023-02-13T09:21:12.171Z,11.44
2023-02-13T09:23:41.811Z,11.66
2023-02-13T09:26:13.226Z,11.40
2023-02-13T09:28:42.528Z,10.64
2023-02-13T09:31:17.345Z,10.13
2023-02-13T09:33:48.010Z,10.38
2023-02-13T09:36:20.867Z,10.83
2023-02-13T09:38:53.955Z,11.19
2023-02-13T09:41:41.343Z,11.43
2023-02-13T09:44:36.662Z,11.64
2023-02-13T09:47:28.746Z,11.26
2023-02-13T09:50:11.342Z,10.45
2023-02-13T09:52:41.627Z,10.06
2023-02-13T09:55:24.251Z,10.45
2023-02-13T09:58:08.832Z,10.95
2023-02-13T10:00:43.635Z,11.30
2023-02-13T10:03:22.851Z,11.52
2023-02-13T10:06:15.268Z,11.74
2023-02-13T10:09:06.781Z,11.86
2023-02-13T10:12:01.855Z,11.19
2023-02-13T10:14:50.164Z,10.42
2023-02-13T10:17:27.191Z,10.21
2023-02-13T10:20:03.950Z,10.65
2023-02-13T10:22:49.988Z,11.12
2023-02-13T10:25:26.049Z,11.46
2023-02-13T10:28:24.109Z,11.48
2023-02-13T10:30:58.132Z,10.71
2023-02-13T10:33:36.419Z,10.20
2023-02-13T10:36:11.047Z,10.47
2023-02-13T10:38:46.411Z,10.90
2023-02-13T10:41:24.380Z,11.29
2023-02-13T10:44:24.558Z,11.63
2023-02-13T10:47:18.998Z,11.70
2023-02-13T10:50:18.314Z,10.97
2023-02-13T10:52:58.736Z,10.24
2023-02-13T10:55:51.942Z,10.06
2023-02-13T10:58:28.313Z,10.57
2023-02-13T11:01:02.403Z,11.01
2023-02-13T11:03:31.559Z,10.97
2023-02-13T11:06:06.226Z,10.37
2023-02-13T11:08:39.165Z,10.00
2023-02-13T11:11:34.736Z,10.38
2023-02-13T11:14:12.234Z,10.84
2023-02-13T11:17:03.271Z,11.14
2023-02-13T11:19:40.578Z,11.38
2023-02-13T11:22:15.328Z,10.94
2023-02-13T11:24:56.234Z,10.30
2023-02-13T11:27:28.984Z,10.32
2023-02-13T11:30:00.496Z,10.76
2023-02-13T11:32:34.540Z,11.15
2023-02-13T11:35:27.925Z,11.48
2023-02-13T11:38:20.449Z,11.22
2023-02-13T11:41:04.562Z,10.46
2023-02-13T11:43:44.555Z,9.98
2023-02-13T11:46:27.178Z,10.28
2023-02-13T11:49:05.154Z,10.79
2023-02-13T11:51:44.320Z,11.13
2023-02-13T11:54:34.245Z,10.90
2023-02-13T11:57:16.539Z,10.16
2023-02-13T11:59:46.805Z,9.65
2023-02-13T12:02:20.337Z,9.87
2023-02-13T12:04:52.148Z,10.42
2023-02-13T12:07:32.665Z,10.84
2023-02-13T12:10:18.698Z,10.83
2023-02-13T12:13:11.492Z,10.20
2023-02-13T12:15:40.998Z,9.75
2023-02-13T12:18:51.041Z,10.10
2023-02-13T12:21:42.349Z,10.63
2023-02-13T12:24:36.969Z,10.98
2023-02-13T12:27:30.731Z,10.51
2023-02-13T12:30:36.601Z,9.87
2023-02-13T12:33:17.369Z,9.39
2023-02-13T12:36:02.547Z,9.61
2023-02-13T12:39:09.750Z,10.16
2023-02-13T12:42:07.926Z,10.67
2023-02-13T12:44:42.216Z,10.75
2023-02-13T12:47:30.657Z,10.16
2023-02-13T12:50:32.020Z,9.58
2023-02-13T12:53:29.743Z,9.60
2023-02-13T12:56:10.183Z,10.15
2023-02-13T12:58:56.120Z,10.53
2023-02-13T13:02:07.660Z,10.84
2023-02-13T13:05:13.653Z,10.25
2023-02-13T13:08:07.268Z,9.53
2023-02-13T13:10:56.716Z,9.58
2023-02-13T13:13:48.779Z,10.19
2023-02-13T13:16:17.237Z,10.68
2023-02-13T13:19:04.900Z,10.92
2023-02-13T13:21:48.692Z,10.36
2023-02-13T13:24:42.743Z,9.72
2023-02-13T13:27:40.175Z,9.48
2023-02-13T13:30:34.375Z,10.05
2023-02-13T13:33:16.869Z,10.57
2023-02-13T13:36:03.355Z,10.81
2023-02-13T13:38:39.412Z,10.18
2023-02-13T13:41:07.835Z,9.63
2023-02-13T13:43:58.968Z,9.23
2023-02-13T13:46:49.391Z,9.41
2023-02-13T13:49:36.661Z,10.01
2023-02-13T13:52:25.464Z,10.48
2023-02-13T13:54:56.430Z,10.68
2023-02-13T13:57:34.729Z,10.19
2023-02-13T14:00:09.580Z,9.62
2023-02-13T14:02:43.335Z,9.20
2023-02-13T14:05:29.489Z,9.29
2023-02-13T14:08:04.387Z,9.94
2023-02-13T14:10:32.860Z,10.43
2023-02-13T14:13:08.105Z,10.36
2023-02-13T14:15:44.835Z,9.77
2023-02-13T14:18:13.456Z,9.28
2023-02-13T14:20:50.950Z,8.97
2023-02-13T14:23:35.106Z,9.25
2023-02-13T14:26:15.997Z,9.86
2023-02-13T14:28:47.666Z,10.33
2023-02-13T14:31:27.719Z,10.20
2023-02-13T14:34:01.403Z,9.61
2023-02-13T14:36:48.135Z,9.18
2023-02-13T14:39:16.537Z,9.38
2023-02-13T14:41:51.592Z,9.91
2023-02-13T14:44:25.273Z,10.33
2023-02-13T14:46:55.753Z,10.16
2023-02-13T14:49:30.839Z,9.59
2023-02-13T14:52:06.961Z,9.12
2023-02-13T14:54:53.825Z,8.76
2023-02-13T14:57:30.083Z,8.85
2023-02-13T15:00:24.775Z,9.45
2023-02-13T15:03:05.513Z,10.02
2023-02-13T15:05:35.762Z,10.16
2023-02-13T15:08:15.720Z,9.61
2023-02-13T15:10:53.562Z,9.05
2023-02-13T15:13:23.411Z,8.73
2023-02-13T15:16:03.126Z,9.14
2023-02-13T15:18:41.814Z,9.69
2023-02-13T15:21:17.218Z,10.15
2023-02-13T15:23:51.156Z,10.41
2023-02-13T15:26:23.961Z,9.96
2023-02-13T15:29:03.689Z,9.36
2023-02-13T15:31:35.229Z,8.88
2023-02-13T15:34:03.957Z,8.86
2023-02-13T15:36:41.243Z,9.42
2023-02-13T15:39:19.276Z,9.97
2023-02-13T15:41:54.662Z,10.34
2023-02-13T15:44:34.412Z,10.10
2023-02-13T15:47:30.815Z,9.45
2023-02-13T15:50:00.043Z,8.87
2023-02-13T15:52:34.835Z,8.50
2023-02-13T15:55:04.007Z,8.58
2023-02-13T15:57:33.512Z,9.17
2023-02-13T16:00:03.601Z,9.64
2023-02-13T16:02:47.854Z,9.80
2023-02-13T16:05:26.483Z,9.27
2023-02-13T16:08:03.934Z,8.72
2023-02-13T16:10:35.557Z,8.57
2023-02-13T16:13:07.376Z,9.06
2023-02-13T16:15:37.872Z,9.46
2023-02-13T16:18:19.017Z,9.16
2023-02-13T16:20:55.993Z,8.63
2023-02-13T16:23:24.842Z,8.25
2023-02-13T16:25:53.377Z,8.29
2023-02-13T16:28:24.587Z,8.87
2023-02-13T16:30:56.934Z,9.37
2023-02-13T16:33:32.186Z,9.20
2023-02-13T16:36:09.879Z,8.64
2023-02-13T16:38:49.675Z,8.23
2023-02-13T16:41:25.422Z,7.96
2023-02-13T16:44:21.557Z,8.36
2023-02-13T16:46:57.090Z,9.07
2023-02-13T16:49:28.932Z,9.55
2023-02-13T16:52:22.166Z,9.58
2023-02-13T16:55:00.520Z,8.93
2023-02-13T16:57:34.936Z,8.46
2023-02-13T17:00:24.461Z,8.10
2023-02-13T17:02:54.087Z,7.98
2023-02-13T17:05:27.046Z,8.51
2023-02-13T17:08:01.755Z,9.12
2023-02-13T17:10:37.842Z,9.59
2023-02-13T17:13:09.216Z,9.55
2023-02-13T17:15:41.186Z,8.99
2023-02-13T17:18:10.046Z,8.47
2023-02-13T17:20:42.322Z,8.12
2023-02-13T17:23:22.645Z,7.88
2023-02-13T17:25:54.019Z,8.28
2023-02-13T17:28:29.397Z,8.91
2023-02-13T17:30:59.999Z,9.43
2023-02-13T17:33:34.432Z,9.59
2023-02-13T17:36:03.231Z,9.07
2023-02-13T17:38:31.778Z,8.55
2023-02-13T17:41:00.851Z,8.17
2023-02-13T17:43:30.291Z,7.88
2023-02-13T17:46:01.171Z,7.94
2023-02-13T17:48:30.447Z,8.55
2023-02-13T17:50:59.232Z,9.15
2023-02-13T17:53:30.447Z,9.60
2023-02-13T17:55:59.481Z,9.62
2023-02-13T17:58:28.156Z,9.03
2023-02-13T18:00:57.043Z,8.52
2023-02-13T18:03:25.761Z,8.15
2023-02-13T18:05:54.191Z,8.03
2023-02-13T18:08:22.818Z,8.54
2023-02-13T18:10:51.319Z,9.11
2023-02-13T18:13:19.803Z,9.54
2023-02-13T18:15:48.476Z,9.76
2023-02-13T18:18:18.083Z,9.26
2023-02-13T18:20:47.036Z,8.69
2023-02-13T18:23:15.504Z,8.26
2023-02-13T18:25:44.167Z,8.27
2023-02-13T18:28:12.848Z,8.83
2023-02-13T18:30:44.496Z,9.30
2023-02-13T18:33:13.322Z,9.68
2023-02-13T18:35:42.633Z,9.40
2023-02-13T18:38:11.128Z,8.79
2023-02-13T18:40:39.606Z,8.33
2023-02-13T18:43:08.354Z,8.06
2023-02-13T18:45:37.231Z,8.44
2023-02-13T18:48:08.243Z,9.01
2023-02-13T18:50:42.278Z,9.44
2023-02-13T18:53:10.954Z,9.23
2023-02-13T18:55:40.604Z,8.64
2023-02-13T18:58:09.068Z,8.21
2023-02-13T19:00:38.014Z,7.90
2023-02-13T19:03:06.458Z,8.12
2023-02-13T19:05:39.993Z,8.74
2023-02-13T19:08:08.420Z,9.28
2023-02-13T19:10:36.798Z,9.66
2023-02-13T19:13:05.286Z,9.53
2023-02-13T19:15:36.338Z,8.94
2023-02-13T19:18:04.864Z,8.44
2023-02-13T19:20:33.282Z,8.06
2023-02-13T19:23:01.760Z,8.03
2023-02-13T19:25:30.228Z,8.60
2023-02-13T19:27:58.698Z,9.17
2023-02-13T19:30:27.127Z,9.60
2023-02-13T19:32:55.686Z,9.89
2023-02-13T19:35:24.953Z,9.49
2023-02-13T19:37:53.411Z,8.86
2023-02-13T19:40:21.878Z,8.38
2023-02-13T19:42:50.311Z,8.02
2023-02-13T19:45:18.807Z,7.80
2023-02-13T19:47:47.319Z,8.23
2023-02-13T19:50:17.852Z,8.83
2023-02-13T19:52:46.321Z,9.31
2023-02-13T19:55:14.744Z,9.65
2023-02-13T19:57:43.179Z,9.70
2023-02-13T20:00:12.735Z,9.12
2023-02-13T20:02:41.281Z,8.58
2023-02-13T20:05:10.228Z,8.18
2023-02-13T20:07:38.827Z,7.87
2023-02-13T20:10:09.989Z,7.76
2023-02-13T20:12:39.400Z,8.30
2023-02-13T20:15:08.429Z,8.90
2023-02-13T20:17:38.295Z,9.38
2023-02-13T20:20:07.647Z,9.75
2023-02-13T20:22:36.244Z,9.56
2023-02-13T20:25:05.656Z,8.96
2023-02-13T20:30:11.836Z,8.08
2023-02-13T20:32:42.042Z,7.77
2023-02-13T20:35:10.662Z,7.72
2023-02-13T20:37:39.013Z,8.29
2023-02-13T20:40:08.855Z,8.92
2023-02-13T20:42:37.553Z,9.40
2023-02-13T20:45:06.515Z,9.78
2023-02-13T20:47:34.962Z,9.66
2023-02-13T20:50:03.507Z,9.03
2023-02-13T20:52:31.972Z,8.49
2023-02-13T20:55:01.712Z,8.08
2023-02-13T20:57:34.189Z,7.79
2023-02-13T21:00:05.794Z,8.12
2023-02-13T21:02:34.482Z,8.74
2023-02-13T21:05:03.106Z,9.26
2023-02-13T21:07:32.237Z,9.65
2023-02-13T21:10:00.734Z,9.87
2023-02-13T21:12:29.213Z,9.43
2023-02-13T21:14:57.690Z,8.79
2023-02-13T21:17:26.143Z,8.31
2023-02-13T21:19:54.643Z,7.95
2023-02-13T21:22:23.100Z,7.67
2023-02-13T21:24:51.698Z,7.95
2023-02-13T21:27:20.352Z,8.57
2023-02-13T21:29:48.854Z,9.09
2023-02-13T21:32:17.516Z,9.50
2023-02-13T21:34:46.052Z,9.81
2023-02-13T21:37:14.688Z,9.54
2023-02-13T21:39:43.285Z,8.90
2023-02-13T21:42:11.771Z,8.37
2023-02-13T21:44:40.254Z,7.98
2023-02-13T21:47:08.678Z,7.73
2023-02-13T21:49:37.332Z,8.10
2023-02-13T21:52:05.815Z,8.68
2023-02-13T21:54:34.488Z,9.17
2023-02-13T21:57:02.941Z,9.54
2023-02-13T21:59:31.482Z,9.84
2023-02-13T22:02:00.379Z,9.56
2023-02-13T22:04:29.275Z,8.89
2023-02-13T22:06:57.963Z,8.34
2023-02-13T22:09:27.864Z,7.94
2023-02-13T22:11:56.425Z,8.06
2023-02-13T22:14:25.001Z,8.63
2023-02-13T22:16:53.746Z,9.15
2023-02-13T22:19:22.511Z,9.51
2023-02-13T22:21:51.052Z,9.77
2023-02-13T22:24:19.582Z,9.55
2023-02-13T22:26:48.130Z,8.88
2023-02-13T22:29:18.683Z,8.33
2023-02-13T22:31:47.400Z,7.91
2023-02-13T22:34:16.168Z,7.94
2023-02-13T22:36:44.588Z,8.49
2023-02-13T22:39:13.272Z,9.00
2023-02-13T22:41:44.644Z,9.37
2023-02-13T22:44:13.308Z,9.68
2023-02-13T22:46:41.909Z,9.66
2023-02-13T22:49:10.414Z,9.04
2023-02-13T22:51:39.048Z,8.44
2023-02-13T22:54:07.519Z,8.00
2023-02-13T22:56:36.004Z,7.89
2023-02-13T22:59:04.741Z,8.39
2023-02-13T23:01:33.259Z,8.90
2023-02-13T23:04:01.924Z,9.30
2023-02-13T23:06:30.664Z,9.62
2023-02-13T23:08:59.105Z,9.82
2023-02-13T23:11:47.645Z,9.37
2023-02-13T23:14:16.524Z,8.59
2023-02-13T23:17:03.447Z,8.10
2023-02-13T23:19:32.444Z,7.68
2023-02-13T23:22:01.494Z,7.89
2023-02-13T23:24:31.446Z,8.44
2023-02-13T23:27:00.512Z,8.89
2023-02-13T23:29:29.078Z,9.25
2023-02-13T23:31:57.561Z,9.51
2023-02-13T23:34:26.153Z,9.71
2023-02-13T23:36:54.650Z,9.28
2023-02-13T23:39:24.475Z,8.60
2023-02-13T23:41:53.020Z,8.07
2023-02-13T23:44:21.526Z,7.90
2023-02-13T23:46:50.066Z,8.38
2023-02-13T23:49:18.750Z,8.86
2023-02-13T23:51:48.292Z,9.22
2023-02-13T23:54:19.314Z,9.52
2023-02-13T23:56:50.061Z,9.52
2023-02-13T23:59:19.498Z,8.87
